createdAt,value
2023-02-13T00:01:24.087Z,0.01
2023-02-13T00:03:57.456Z,-0.01
2023-02-13T00:06:31.390Z,-0.01
2023-02-13T00:09:06.468Z,-0.03
2023-02-13T00:11:41.034Z,-0.11
2023-02-13T00:14:16.027Z,-0.16
2023-02-13T00:16:51.609Z,-0.26
2023-02-13T00:19:25.275Z,-0.23
2023-02-13T00:21:58.594Z,-0.30
2023-02-13T00:24:31.976Z,-0.29
2023-02-13T00:27:05.236Z,-0.32
2023-02-13T00:29:39.832Z,-0.34
2023-02-13T00:32:13.252Z,-0.85
2023-02-13T00:34:46.679Z,-0.45
2023-02-13T00:37:20.129Z,-0.43
2023-02-13T00:39:53.630Z,-0.61
2023-02-13T00:42:26.794Z,-0.66
2023-02-13T00:45:01.403Z,-0.59
2023-02-13T00:47:34.893Z,-0.53
2023-02-13T00:50:08.798Z,-0.55
2023-02-13T00:52:42.394Z,-0.68
2023-02-13T00:55:16.017Z,-0.66
2023-02-13T00:57:49.280Z,-0.71
2023-02-13T01:00:23.868Z,-0.70
2023-02-13T01:02:57.513Z,-0.73
2023-02-13T01:05:31.060Z,-0.83
2023-02-13T01:08:04.708Z,-0.80
2023-02-13T01:10:39.021Z,-0.72
2023-02-13T01:13:13.096Z,-0.74
2023-02-13T01:15:49.862Z,-0.71
2023-02-13T01:18:23.530Z,-0.92
2023-02-13T01:20:59.410Z,-0.69
2023-02-13T01:23:34.423Z,-0.64
2023-02-13T01:26:09.419Z,-0.63
2023-02-13T01:28:42.835Z,-0.63
2023-02-13T01:31:17.470Z,-0.68
2023-02-13T01:33:50.888Z,-0.83
2023-02-13T01:36:24.083Z,-0.80
2023-02-13T01:39:00.146Z,-0.78
2023-02-13T01:41:33.810Z,-0.84
2023-02-13T01:44:40.438Z,-0.80
2023-02-13T01:47:18.118Z,-0.79
2023-02-13T01:49:55.693Z,-0.80
2023-02-13T01:52:30.005Z,-0.88
2023-02-13T01:55:03.595Z,-0.96
2023-02-13T01:57:40.280Z,-0.93
2023-02-13T02:00:15.846Z,-1.08
2023-02-13T02:02:54.459Z,-1.06
2023-02-13T02:05:32.106Z,-1.04
2023-02-13T02:08:10.499Z,-1.20
2023-02-13T02:10:44.311Z,-1.41
2023-02-13T02:13:20.410Z,-1.45
2023-02-13T02:15:54.145Z,-1.42
2023-02-13T02:18:28.998Z,-1.36
2023-02-13T02:21:43.986Z,-1.43
2023-02-13T02:25:05.065Z,-1.30
2023-02-13T02:28:11.928Z,-1.42
2023-02-13T02:31:18.450Z,-1.32
2023-02-13T02:34:08.211Z,-1.26
2023-02-13T02:36:59.117Z,-1.27
2023-02-13T02:39:40.938Z,-1.34
2023-02-13T02:42:22.272Z,-1.36
2023-02-13T02:45:02.438Z,-1.39
2023-02-13T02:48:02.872Z,-1.42
2023-02-13T02:50:43.135Z,-1.55
2023-02-13T02:53:25.727Z,-1.72
2023-02-13T02:56:07.308Z,-1.63
2023-02-13T02:59:05.346Z,-1.68
2023-02-13T03:01:57.167Z,-1.78
2023-02-13T03:04:52.549Z,-1.83
2023-02-13T03:07:27.889Z,-1.83
2023-02-13T03:10:20.783Z,-1.85
2023-02-13T03:13:22.053Z,-1.98
2023-02-13T03:16:18.081Z,-1.91
2023-02-13T03:19:14.259Z,-2.17
2023-02-13T03:22:08.572Z,-2.18
2023-02-13T03:24:47.456Z,-2.30
2023-02-13T03:27:48.955Z,-2.40
2023-02-13T03:30:41.864Z,-2.26
2023-02-13T03:33:27.474Z,-2.28
2023-02-13T03:36:25.897Z,-2.40
2023-02-13T03:39:04.974Z,-2.21
2023-02-13T03:41:42.942Z,-2.33
2023-02-13T03:44:24.241Z,-2.31
2023-02-13T03:47:01.603Z,-2.45
2023-02-13T03:49:56.662Z,-2.48
2023-02-13T03:52:35.976Z,-2.53
2023-02-13T03:55:31.061Z,-2.52
2023-02-13T03:58:27.215Z,-2.49
2023-02-13T04:01:05.350Z,-2.59
2023-02-13T04:03:47.110Z,-2.74
2023-02-13T04:06:23.900Z,-2.92
2023-02-13T04:08:57.499Z,-2.74
2023-02-13T04:11:36.243Z,-2.77
2023-02-13T04:14:20.406Z,-2.75
2023-02-13T04:16:59.021Z,-2.95
2023-02-13T04:19:33.927Z,-2.98
2023-02-13T04:22:07.257Z,-3.01
2023-02-13T04:24:40.750Z,-2.84
2023-02-13T04:27:15.386Z,-2.86
2023-02-13T04:29:49.924Z,-2.76
2023-02-13T04:32:23.128Z,-2.83
2023-02-13T04:34:56.654Z,-2.76
2023-02-13T04:37:30.264Z,-2.82
2023-02-13T04:40:03.508Z,-2.81
2023-02-13T04:42:36.667Z,-2.81
2023-02-13T04:45:11.722Z,-2.72
2023-02-13T04:47:45.138Z,-2.80
2023-02-13T04:50:18.893Z,-2.71
2023-02-13T04:52:55.719Z,-2.90
2023-02-13T04:55:29.808Z,-2.94
2023-02-13T04:58:02.886Z,-2.83
2023-02-13T05:00:38.188Z,-2.95
2023-02-13T05:03:13.919Z,-3.01
2023-02-13T05:05:47.310Z,-2.92
2023-02-13T05:08:21.116Z,-2.85
2023-02-13T05:10:54.338Z,-2.85
2023-02-13T05:13:27.980Z,-2.95
2023-02-13T05:16:03.121Z,-3.01
2023-02-13T05:18:36.504Z,-2.99
2023-02-13T05:21:27.376Z,-3.08
2023-02-13T05:24:01.277Z,-3.15
2023-02-13T05:26:34.971Z,-3.08
2023-02-13T05:29:20.161Z,-3.12
2023-02-13T05:31:56.889Z,-3.28
2023-02-13T05:34:30.807Z,-3.31
2023-02-13T05:37:03.941Z,-3.26
2023-02-13T05:39:37.190Z,-3.15
2023-02-13T05:42:10.701Z,-3.05
2023-02-13T05:44:44.038Z,-3.12
2023-02-13T05:47:18.748Z,-3.07
2023-02-13T05:49:52.055Z,-2.97
2023-02-13T05:52:26.643Z,-3.05
2023-02-13T05:55:00.347Z,-3.03
2023-02-13T05:57:34.819Z,-3.04
2023-02-13T06:00:09.876Z,-2.90
2023-02-13T06:02:44.556Z,-2.91
2023-02-13T06:05:17.963Z,-2.98
2023-02-13T06:07:51.171Z,-2.86
2023-02-13T06:10:24.348Z,-2.92
2023-02-13T06:12:57.635Z,-2.92
2023-02-13T06:15:31.105Z,-2.95
2023-02-13T06:18:06.043Z,-2.80
2023-02-13T06:20:49.485Z,-2.77
2023-02-13T06:23:23.477Z,-2.72
2023-02-13T06:25:56.967Z,-2.71
2023-02-13T06:28:30.816Z,-2.56
2023-02-13T06:31:04.237Z,-2.52
2023-02-13T06:33:38.984Z,-2.60
2023-02-13T06:36:12.212Z,-2.41
2023-02-13T06:38:45.531Z,-2.37
2023-02-13T06:41:19.128Z,-2.37
2023-02-13T06:43:52.263Z,-2.32
2023-02-13T06:46:25.994Z,-2.25
2023-02-13T06:49:00.880Z,-2.24
2023-02-13T06:51:34.291Z,-2.21
2023-02-13T06:54:07.655Z,-2.12
2023-02-13T06:56:41.202Z,-2.02
2023-02-13T06:59:14.515Z,-2.06
2023-02-13T07:01:48.294Z,-1.99
2023-02-13T07:04:23.205Z,-1.82
2023-02-13T07:06:57.070Z,-1.79
2023-02-13T07:09:30.184Z,-1.71
2023-02-13T07:12:05.084Z,-1.65
2023-02-13T07:14:39.245Z,-1.58
2023-02-13T07:17:12.764Z,-1.52
2023-02-13T07:19:47.695Z,-1.41
2023-02-13T07:22:20.903Z,-1.30
2023-02-13T07:24:54.234Z,-1.20
2023-02-13T07:27:29.349Z,-1.08
2023-02-13T07:30:02.567Z,-0.97
2023-02-13T07:32:36.031Z,-0.84
2023-02-13T07:35:10.994Z,-0.77
2023-02-13T07:37:44.206Z,-0.57
2023-02-13T07:40:17.324Z,-0.50
2023-02-13T07:42:50.721Z,-0.45
2023-02-13T07:45:23.966Z,-0.23
2023-02-13T07:47:57.534Z,-0.13
2023-02-13T07:50:32.958Z,-0.01
2023-02-13T07:53:06.183Z,-0.19
2023-02-13T07:55:39.544Z,0.27
2023-02-13T07:58:13.528Z,0.40
2023-02-13T08:00:46.870Z,0.54
2023-02-13T08:03:20.084Z,0.59
2023-02-13T08:05:55.339Z,0.83
2023-02-13T08:08:29.057Z,0.96
2023-02-13T08:11:24.861Z,0.96
2023-02-13T08:13:59.036Z,1.21
2023-02-13T08:16:32.741Z,1.22
2023-02-13T08:19:06.254Z,1.47
2023-02-13T08:21:41.153Z,1.56
2023-02-13T08:24:14.849Z,1.69
2023-02-13T08:26:48.350Z,1.70
2023-02-13T08:29:22.014Z,1.85
2023-02-13T08:31:55.449Z,2.03
2023-02-13T08:34:28.915Z,2.00
2023-02-13T08:37:04.907Z,2.05
2023-02-13T08:39:38.457Z,2.13
2023-02-13T08:42:15.165Z,2.25
2023-02-13T08:44:50.201Z,2.38
2023-02-13T08:47:23.389Z,2.13
2023-02-13T08:49:57.616Z,2.60
2023-02-13T08:52:32.204Z,2.72
2023-02-13T08:55:05.827Z,2.81
2023-02-13T08:57:39.113Z,2.97
2023-02-13T09:00:14.676Z,2.87
2023-02-13T09:02:48.004Z,2.90
2023-02-13T09:05:21.552Z,3.02
2023-02-13T09:07:56.229Z,3.12
2023-02-13T09:10:29.518Z,3.10
2023-02-13T09:13:03.602Z,3.12
2023-02-13T09:15:39.963Z,3.11
2023-02-13T09:18:13.419Z,3.30
2023-02-13T09:20:46.885Z,3.29
2023-02-13T09:23:21.537Z,3.31
2023-02-13T09:25:54.912Z,3.31
2023-02-13T09:28:28.708Z,3.33
2023-02-13T09:31:07.464Z,3.23
2023-02-13T09:33:40.672Z,3.46
2023-02-13T09:36:16.349Z,3.27
2023-02-13T09:38:54.477Z,3.35
2023-02-13T09:41:31.781Z,3.44
2023-02-13T09:44:33.313Z,3.42
2023-02-13T09:47:12.389Z,3.39
2023-02-13T09:49:48.281Z,3.41
2023-02-13T09:52:21.765Z,3.46
2023-02-13T09:54:56.713Z,3.44
2023-02-13T09:57:34.760Z,3.73
2023-02-13T10:00:14.648Z,3.77
2023-02-13T10:03:08.299Z,3.81
2023-02-13T10:05:48.455Z,3.87
2023-02-13T10:08:34.769Z,3.88
2023-02-13T10:11:26.042Z,3.83
2023-02-13T10:14:06.631Z,3.91
2023-02-13T10:16:44.839Z,4.00
2023-02-13T10:19:29.627Z,4.16
2023-02-13T10:22:08.430Z,4.23
2023-02-13T10:24:45.504Z,4.31
2023-02-13T10:27:26.100Z,4.28
2023-02-13T10:30:12.876Z,4.22
2023-02-13T10:33:15.123Z,4.43
2023-02-13T10:35:54.805Z,4.49
2023-02-13T10:38:31.387Z,4.49
2023-02-13T10:41:15.970Z,4.52
2023-02-13T10:44:04.521Z,4.56
2023-02-13T10:46:47.120Z,4.61
2023-02-13T10:49:43.617Z,4.70
2023-02-13T10:52:29.645Z,4.79
2023-02-13T10:55:27.616Z,4.78
2023-02-13T10:58:14.116Z,4.82
2023-02-13T11:00:56.139Z,4.86
2023-02-13T11:03:31.746Z,4.90
2023-02-13T11:06:09.572Z,5.01
2023-02-13T11:08:46.007Z,5.05
2023-02-13T11:11:38.165Z,5.21
2023-02-13T11:14:14.940Z,5.12
2023-02-13T11:16:57.278Z,5.11
2023-02-13T11:19:34.342Z,5.31
2023-02-13T11:22:13.211Z,5.33
2023-02-13T11:24:54.522Z,5.31
2023-02-13T11:27:31.707Z,5.39
2023-02-13T11:30:26.637Z,5.54
2023-02-13T11:33:05.292Z,5.45
2023-02-13T11:35:39.275Z,5.48
2023-02-13T11:38:14.795Z,5.39
2023-02-13T11:40:51.216Z,5.41
2023-02-13T11:43:30.000Z,5.51
2023-02-13T11:46:06.128Z,5.60
2023-02-13T11:48:40.746Z,5.50
2023-02-13T11:51:13.990Z,5.56
2023-02-13T11:53:47.276Z,5.49
2023-02-13T11:56:20.807Z,5.49
2023-02-13T11:59:03.390Z,5.49
2023-02-13T12:01:36.686Z,5.73
2023-02-13T12:04:18.411Z,5.63
2023-02-13T12:07:01.396Z,4.88
2023-02-13T12:09:34.825Z,5.85
2023-02-13T12:12:17.356Z,5.86
2023-02-13T12:14:51.581Z,5.87
2023-02-13T12:17:31.709Z,5.71
2023-02-13T12:20:14.607Z,5.72
2023-02-13T12:23:01.940Z,5.65
2023-02-13T12:25:48.711Z,5.79
2023-02-13T12:28:29.479Z,5.74
2023-02-13T12:31:30.764Z,5.84
2023-02-13T12:34:54.650Z,5.89
2023-02-13T12:37:53.335Z,5.95
2023-02-13T12:40:40.876Z,5.99
2023-02-13T12:43:37.183Z,5.82
2023-02-13T12:46:16.903Z,6.02
2023-02-13T12:49:00.106Z,5.97
2023-02-13T12:51:46.528Z,5.87
2023-02-13T12:54:42.926Z,5.73
2023-02-13T12:57:36.589Z,5.65
2023-02-13T13:00:23.825Z,5.81
2023-02-13T13:03:38.037Z,5.58
2023-02-13T13:06:35.199Z,5.89
2023-02-13T13:09:33.853Z,6.02
2023-02-13T13:12:26.288Z,6.00
2023-02-13T13:15:09.804Z,5.90
2023-02-13T13:17:59.871Z,6.12
2023-02-13T13:20:59.321Z,5.93
2023-02-13T13:23:36.133Z,5.92
2023-02-13T13:26:21.267Z,6.05
2023-02-13T13:28:59.329Z,5.92
2023-02-13T13:31:35.668Z,5.85
2023-02-13T13:34:21.964Z,5.74
2023-02-13T13:37:01.809Z,5.93
2023-02-13T13:39:47.992Z,5.79
2023-02-13T13:42:29.532Z,5.68
2023-02-13T13:45:26.666Z,5.85
2023-02-13T13:48:21.402Z,5.69
2023-02-13T13:50:55.201Z,5.80
2023-02-13T13:53:28.313Z,6.08
2023-02-13T13:56:08.682Z,5.96
2023-02-13T13:58:44.784Z,5.94
2023-02-13T14:01:29.328Z,5.86
2023-02-13T14:04:04.497Z,5.86
2023-02-13T14:07:16.821Z,6.01
2023-02-13T14:09:50.646Z,6.07
2023-02-13T14:12:39.809Z,5.87
2023-02-13T14:15:46.941Z,5.86
2023-02-13T14:18:23.813Z,5.75
2023-02-13T14:20:59.529Z,5.59
2023-02-13T14:23:50.193Z,5.62
2023-02-13T14:26:37.250Z,5.71
2023-02-13T14:29:29.312Z,5.63
2023-02-13T14:32:28.927Z,5.51
2023-02-13T14:35:06.636Z,5.57
2023-02-13T14:37:49.124Z,5.46
2023-02-13T14:40:54.776Z,5.33
2023-02-13T14:43:34.456Z,5.32
2023-02-13T14:46:23.695Z,5.16
2023-02-13T14:49:01.372Z,5.33
2023-02-13T14:51:39.838Z,5.30
2023-02-13T14:54:23.104Z,5.19
2023-02-13T14:57:06.278Z,5.17
2023-02-13T14:59:46.368Z,5.05
2023-02-13T15:02:24.743Z,5.01
2023-02-13T15:05:01.296Z,4.98
2023-02-13T15:07:40.238Z,5.05
2023-02-13T15:10:33.117Z,5.12
2023-02-13T15:13:07.350Z,5.03
2023-02-13T15:15:42.407Z,4.98
2023-02-13T15:18:21.737Z,4.99
2023-02-13T15:20:58.741Z,4.92
2023-02-13T15:23:35.632Z,4.83
2023-02-13T15:26:09.535Z,4.77
2023-02-13T15:28:43.282Z,4.68
2023-02-13T15:31:24.884Z,4.63
2023-02-13T15:33:58.826Z,4.54
2023-02-13T15:36:40.777Z,4.45
2023-02-13T15:39:19.982Z,4.42
2023-02-13T15:41:56.531Z,4.36
2023-02-13T15:44:33.239Z,4.29
2023-02-13T15:47:09.624Z,4.25
2023-02-13T15:49:45.485Z,4.18
2023-02-13T15:52:22.962Z,4.06
2023-02-13T15:54:58.418Z,4.09
2023-02-13T15:57:33.344Z,4.06
2023-02-13T16:00:08.919Z,3.99
2023-02-13T16:02:47.567Z,3.98
2023-02-13T16:05:37.546Z,3.93
2023-02-13T16:08:29.182Z,3.88
2023-02-13T16:11:29.781Z,3.82
2023-02-13T16:14:14.024Z,3.77
2023-02-13T16:16:54.352Z,3.72
2023-02-13T16:19:32.076Z,3.66
2023-02-13T16:22:27.292Z,3.65
2023-02-13T16:25:08.690Z,3.58
2023-02-13T16:27:46.865Z,3.55
2023-02-13T16:30:34.132Z,3.49
2023-02-13T16:33:22.401Z,3.46
2023-02-13T16:35:57.412Z,3.40
2023-02-13T16:38:36.230Z,3.34
2023-02-13T16:41:31.916Z,3.33
2023-02-13T16:44:06.641Z,3.13
2023-02-13T16:46:42.293Z,3.21
2023-02-13T16:49:19.083Z,3.21
2023-02-13T16:52:12.543Z,3.16
2023-02-13T16:54:52.381Z,3.09
2023-02-13T16:57:30.243Z,3.07
2023-02-13T17:00:08.677Z,3.03
2023-02-13T17:02:41.913Z,2.96
2023-02-13T17:05:21.364Z,2.81
2023-02-13T17:07:58.997Z,2.90
2023-02-13T17:10:34.528Z,2.86
2023-02-13T17:13:17.632Z,2.83
2023-02-13T17:15:52.871Z,2.71
2023-02-13T17:18:26.649Z,2.74
2023-02-13T17:21:01.689Z,2.64
2023-02-13T17:23:35.187Z,2.67
2023-02-13T17:26:08.376Z,2.66
2023-02-13T17:28:41.646Z,2.68
2023-02-13T17:31:16.452Z,2.63
2023-02-13T17:33:50.347Z,2.59
2023-02-13T17:36:23.751Z,2.57
2023-02-13T17:38:57.012Z,2.56
2023-02-13T17:41:30.705Z,2.48
2023-02-13T17:44:03.931Z,2.30
2023-02-13T17:46:38.766Z,2.29
2023-02-13T17:49:15.141Z,2.32
2023-02-13T17:51:48.377Z,2.30
2023-02-13T17:54:21.529Z,2.34
2023-02-13T17:56:54.707Z,2.34
2023-02-13T17:59:27.966Z,2.24
2023-02-13T18:02:02.699Z,2.28
2023-02-13T18:04:36.040Z,2.42
2023-02-13T18:07:10.549Z,2.32
2023-02-13T18:09:43.868Z,2.13
2023-02-13T18:12:20.572Z,2.28
2023-02-13T18:14:54.794Z,2.18
2023-02-13T18:17:29.354Z,2.06
2023-02-13T18:20:02.822Z,2.10
2023-02-13T18:22:36.576Z,2.05
2023-02-13T18:25:10.561Z,1.95
2023-02-13T18:27:44.005Z,1.77
2023-02-13T18:30:20.959Z,1.83
2023-02-13T18:32:59.348Z,1.68
2023-02-13T18:35:34.850Z,1.79
2023-02-13T18:38:08.128Z,1.58
2023-02-13T18:40:41.274Z,1.69
2023-02-13T18:43:14.502Z,1.60
2023-02-13T18:45:47.630Z,1.59
2023-02-13T18:48:22.366Z,1.47
2023-02-13T18:50:55.739Z,1.43
2023-02-13T18:53:30.432Z,1.39
2023-02-13T18:56:04.894Z,1.26
2023-02-13T18:58:38.113Z,1.18
2023-02-13T19:01:14.102Z,1.29
2023-02-13T19:03:49.512Z,1.05
2023-02-13T19:06:24.756Z,1.16
2023-02-13T19:09:00.056Z,1.04
2023-02-13T19:11:34.353Z,1.15
2023-02-13T19:14:09.164Z,1.22
2023-02-13T19:16:43.444Z,1.16
2023-02-13T19:19:18.666Z,1.13
2023-02-13T19:21:52.499Z,1.08
2023-02-13T19:24:25.820Z,1.14
2023-02-13T19:27:00.439Z,1.12
2023-02-13T19:29:33.889Z,1.10
2023-02-13T19:32:07.131Z,1.01
2023-02-13T19:34:42.397Z,1.03
2023-02-13T19:37:15.816Z,0.95
2023-02-13T19:39:49.123Z,0.98
2023-02-13T19:42:22.513Z,0.93
2023-02-13T19:44:55.862Z,1.00
2023-02-13T19:47:29.113Z,0.91
2023-02-13T19:50:04.005Z,0.93
2023-02-13T19:52:37.751Z,0.85
2023-02-13T19:55:11.250Z,0.92
2023-02-13T19:57:44.671Z,0.85
2023-02-13T20:00:18.994Z,0.82
2023-02-13T20:02:55.215Z,0.76
2023-02-13T20:05:30.228Z,0.77
2023-02-13T20:08:04.289Z,0.75
2023-02-13T20:10:37.753Z,0.67
2023-02-13T20:13:11.699Z,0.60
2023-02-13T20:15:45.161Z,0.65
2023-02-13T20:18:19.780Z,0.50
2023-02-13T20:20:54.548Z,0.47
2023-02-13T20:23:28.085Z,0.42
2023-02-13T20:26:05.107Z,0.27
2023-02-13T20:28:38.464Z,0.26
2023-02-13T20:31:12.465Z,0.42
2023-02-13T20:33:46.503Z,0.44
2023-02-13T20:36:23.150Z,0.38
2023-02-13T20:38:59.654Z,0.44
2023-02-13T20:41:35.520Z,0.40
2023-02-13T20:44:11.635Z,0.43
2023-02-13T20:46:45.147Z,0.39
2023-02-13T20:49:21.788Z,0.27
2023-02-13T20:51:56.479Z,0.26
2023-02-13T20:54:29.683Z,0.03
2023-02-13T20:57:03.198Z,0.01
2023-02-13T20:59:36.709Z,0.20
2023-02-13T21:02:11.337Z,0.29
2023-02-13T21:04:45.005Z,0.22
2023-02-13T21:07:19.968Z,0.18
2023-02-13T21:09:53.171Z,0.20
2023-02-13T21:12:27.225Z,0.25
2023-02-13T21:15:01.272Z,0.12
2023-02-13T21:17:35.618Z,-0.04
2023-02-13T21:20:09.953Z,0.04
2023-02-13T21:22:44.783Z,0.12
2023-02-13T21:25:18.751Z,0.01
2023-02-13T21:27:51.910Z,-0.08
2023-02-13T21:30:25.171Z,-0.12
2023-02-13T21:32:58.737Z,0.01
2023-02-13T21:35:32.368Z,-0.09
2023-02-13T21:38:07.302Z,-0.25
2023-02-13T21:40:41.056Z,-0.23
2023-02-13T21:43:14.225Z,-0.14
2023-02-13T21:45:47.394Z,-0.10
2023-02-13T21:48:20.790Z,-0.11
2023-02-13T21:50:54.316Z,-0.22
2023-02-13T21:53:29.029Z,-0.24
2023-02-13T21:56:03.418Z,-0.31
2023-02-13T21:58:38.145Z,-0.30
2023-02-13T22:01:20.525Z,-0.27
2023-02-13T22:04:01.039Z,-0.37
2023-02-13T22:06:36.232Z,-0.31
2023-02-13T22:09:12.741Z,-0.40
2023-02-13T22:11:51.456Z,-0.36
2023-02-13T22:14:25.547Z,-0.21
2023-02-13T22:16:59.743Z,-0.37
2023-02-13T22:19:33.603Z,-0.47
2023-02-13T22:22:06.966Z,-0.54
2023-02-13T22:24:41.688Z,-0.50
2023-02-13T22:27:14.904Z,-0.51
2023-02-13T22:29:48.181Z,-0.50
2023-02-13T22:32:21.744Z,-0.72
2023-02-13T22:34:55.308Z,-0.73
2023-02-13T22:37:28.578Z,-0.67
2023-02-13T22:40:03.431Z,-0.73
2023-02-13T22:42:36.499Z,-0.78
2023-02-13T22:45:10.688Z,-0.86
2023-02-13T22:47:44.234Z,-0.76
2023-02-13T22:50:18.025Z,-0.81
2023-02-13T22:52:51.451Z,-0.88
2023-02-13T22:55:26.226Z,-0.97
2023-02-13T22:57:59.369Z,-0.92
2023-02-13T23:00:32.600Z,-1.08
2023-02-13T23:03:05.736Z,-1.18
2023-02-13T23:05:40.858Z,-1.13
2023-02-13T23:08:14.797Z,-1.13
2023-02-13T23:11:09.352Z,-1.20
2023-02-13T23:13:44.337Z,-1.20
2023-02-13T23:16:18.415Z,-1.35
2023-02-13T23:18:52.055Z,-1.09
2023-02-13T23:21:26.336Z,-1.32
2023-02-13T23:23:59.568Z,-1.30
2023-02-13T23:26:34.881Z,-1.33
2023-02-13T23:29:08.173Z,-1.27
2023-02-13T23:31:41.769Z,-1.28
2023-02-13T23:34:15.141Z,-1.23
2023-02-13T23:36:48.682Z,-1.23
2023-02-13T23:39:24.304Z,-1.20
2023-02-13T23:41:59.049Z,-1.26
2023-02-13T23:44:32.219Z,-1.34
2023-02-13T23:47:05.849Z,-1.47
2023-02-13T23:49:39.308Z,-1.41
2023-02-13T23:52:12.568Z,-1.27
2023-02-13T23:54:46.152Z,-1.23
2023-02-13T23:57:20.764Z,-1.41
2023-02-13T23:59:54.053Z,-1.25
